sensor_id;sensor_type;location;lat;lon;timestamp;temperature;humidity
14779;DHT22;7481;53.750;10.570;2022-12-07T08:39:09;2.50;99.90
14779;DHT22;7481;53.750;10.570;2022-12-07T08:42:16;2.70;99.90
14779;DHT22;7481;53.750;10.570;2022-12-07T08:45:06;2.70;99.90
14779;DHT22;7481;53.750;10.570;2022-12-07T08:48:06;2.70;99.90
14779;DHT22;7481;53.750;10.570;2022-12-07T08:50:53;3.00;99.90
14779;DHT22;7481;53.750;10.570;2022-12-07T08:53:41;2.90;99.90
14779;DHT22;7481;53.750;10.570;2022-12-07T08:56:29;3.10;99.90
14779;DHT22;7481;53.750;10.570;2022-12-07T08:59:18;3.10;99.90
14779;DHT22;7481;53.750;10.570;2022-12-07T09:02:06;3.20;99.90
14779;DHT22;7481;53.750;10.570;2022-12-07T09:04:53;3.50;99.90
14779;DHT22;7481;53.750;10.570;2022-12-07T09:07:41;3.90;99.90
14779;DHT22;7481;53.750;10.570;2022-12-07T09:10:30;4.50;99.90
14779;DHT22;7481;53.750;10.570;2022-12-07T09:13:17;4.70;99.90
14779;DHT22;7481;53.750;10.570;2022-12-07T09:16:04;4.50;99.90
14779;DHT22;7481;53.750;10.570;2022-12-07T09:18:51;4.50;99.90
14779;DHT22;7481;53.750;10.570;2022-12-07T09:21:38;4.40;99.90
14779;DHT22;7481;53.750;10.570;2022-12-07T09:24:25;4.40;99.90
14779;DHT22;7481;53.750;10.570;2022-12-07T09:27:12;4.20;99.90
14779;DHT22;7481;53.750;10.570;2022-12-07T09:29:59;4.20;99.90
14779;DHT22;7481;53.750;10.570;2022-12-07T09:32:47;4.10;99.90
14779;DHT22;7481;53.750;10.570;2022-12-07T09:35:34;4.10;99.90
14779;DHT22;7481;53.750;10.570;2022-12-07T09:38:21;4.00;99.90
14779;DHT22;7481;53.750;10.570;2022-12-07T09:41:08;4.00;99.90
14779;DHT22;7481;53.750;10.570;2022-12-07T09:44:05;4.00;99.90
14779;DHT22;7481;53.750;10.570;2022-12-07T09:46:53;4.00;99.90
14779;DHT22;7481;53.750;10.570;2022-12-07T09:49:40;4.00;99.90
14779;DHT22;7481;53.750;10.570;2022-12-07T09:52:28;4.00;99.90
14779;DHT22;7481;53.750;10.570;2022-12-07T09:55:27;4.00;99.90
14779;DHT22;7481;53.750;10.570;2022-12-07T09:58:24;4.00;99.90
14779;DHT22;7481;53.750;10.570;2022-12-07T10:01:17;4.00;99.90
14779;DHT22;7481;53.750;10.570;2022-12-07T10:04:16;3.90;99.90
14779;DHT22;7481;53.750;10.570;2022-12-07T10:07:03;3.90;99.90
14779;DHT22;7481;53.750;10.570;2022-12-07T10:09:50;4.00;99.90
14779;DHT22;7481;53.750;10.570;2022-12-07T10:12:56;4.00;99.90
14779;DHT22;7481;53.750;10.570;2022-12-07T10:15:53;4.10;99.90
14779;DHT22;7481;53.750;10.570;2022-12-07T10:18:41;4.20;99.90
14779;DHT22;7481;53.750;10.570;2022-12-07T10:21:28;4.30;99.90
14779;DHT22;7481;53.750;10.570;2022-12-07T10:24:15;4.40;99.90
14779;DHT22;7481;53.750;10.570;2022-12-07T10:27:03;4.50;99.90
14779;DHT22;7481;53.750;10.570;2022-12-07T10:29:52;4.70;99.90
14779;DHT22;7481;53.750;10.570;2022-12-07T10:32:39;4.70;99.90
14779;DHT22;7481;53.750;10.570;2022-12-07T10:35:29;4.70;99.90
14779;DHT22;7481;53.750;10.570;2022-12-07T10:38:16;5.30;99.90
14779;DHT22;7481;53.750;10.570;2022-12-07T10:41:07;4.60;99.90
14779;DHT22;7481;53.750;10.570;2022-12-07T10:43:56;4.50;99.90
14779;DHT22;7481;53.750;10.570;2022-12-07T10:50:13;4.50;99.90
14779;DHT22;7481;53.750;10.570;2022-12-07T11:02:43;4.50;99.90
14779;DHT22;7481;53.750;10.570;2022-12-07T11:06:01;4.50;99.90
14779;DHT22;7481;53.750;10.570;2022-12-07T11:11:45;4.70;99.90
14779;DHT22;7481;53.750;10.570;2022-12-07T11:14:58;4.70;99.90
14779;DHT22;7481;53.750;10.570;2022-12-07T11:18:09;4.70;99.90
14779;DHT22;7481;53.750;10.570;2022-12-07T11:24:17;4.70;99.90
14779;DHT22;7481;53.750;10.570;2022-12-07T11:27:28;4.80;99.90
14779;DHT22;7481;53.750;10.570;2022-12-07T11:30:20;4.80;99.90
14779;DHT22;7481;53.750;10.570;2022-12-07T11:33:27;4.90;99.90
14779;DHT22;7481;53.750;10.570;2022-12-07T11:39:47;4.90;99.90
14779;DHT22;7481;53.750;10.570;2022-12-07T11:42:46;4.60;99.90
14779;DHT22;7481;53.750;10.570;2022-12-07T11:45:39;4.80;99.90
14779;DHT22;7481;53.750;10.570;2022-12-07T11:48:38;4.70;99.90
14779;DHT22;7481;53.750;10.570;2022-12-07T11:51:28;4.70;99.90
14779;DHT22;7481;53.750;10.570;2022-12-07T11:54:29;4.70;99.90
14779;DHT22;7481;53.750;10.570;2022-12-07T11:57:41;4.60;99.90
14779;DHT22;7481;53.750;10.570;2022-12-07T12:00:29;4.60;99.90
14779;DHT22;7481;53.750;10.570;2022-12-07T12:03:30;4.50;99.90
14779;DHT22;7481;53.750;10.570;2022-12-07T12:06:20;4.50;99.90
14779;DHT22;7481;53.750;10.570;2022-12-07T12:09:19;4.50;99.90
14779;DHT22;7481;53.750;10.570;2022-12-07T12:12:32;4.50;99.90
14779;DHT22;7481;53.750;10.570;2022-12-07T12:21:47;5.00;99.90
14779;DHT22;7481;53.750;10.570;2022-12-07T12:24:41;4.40;99.90
14779;DHT22;7481;53.750;10.570;2022-12-07T12:27:33;4.50;99.90
14779;DHT22;7481;53.750;10.570;2022-12-07T12:30:40;4.50;99.90
14779;DHT22;7481;53.750;10.570;2022-12-07T12:33:29;4.50;99.90
14779;DHT22;7481;53.750;10.570;2022-12-07T12:36:18;4.60;99.90
14779;DHT22;7481;53.750;10.570;2022-12-07T12:39:15;4.60;99.90
14779;DHT22;7481;53.750;10.570;2022-12-07T12:42:05;4.60;99.90
14779;DHT22;7481;53.750;10.570;2022-12-07T12:45:18;4.50;99.90
14779;DHT22;7481;53.750;10.570;2022-12-07T12:48:27;4.40;99.90
14779;DHT22;7481;53.750;10.570;2022-12-07T13:00:21;4.20;99.90
14779;DHT22;7481;53.750;10.570;2022-12-07T13:03:27;4.10;99.90
14779;DHT22;7481;53.750;10.570;2022-12-07T13:12:14;3.90;99.90
14779;DHT22;7481;53.750;10.570;2022-12-07T13:15:01;4.00;99.90
14779;DHT22;7481;53.750;10.570;2022-12-07T13:20:46;3.70;99.90
14779;DHT22;7481;53.750;10.570;2022-12-07T13:26:38;3.70;99.90
14779;DHT22;7481;53.750;10.570;2022-12-07T13:32:27;3.60;99.90
14779;DHT22;7481;53.750;10.570;2022-12-07T13:35:37;3.60;99.90
14779;DHT22;7481;53.750;10.570;2022-12-07T13:38:34;3.50;99.90
14779;DHT22;7481;53.750;10.570;2022-12-07T13:47:18;4.30;99.90
14779;DHT22;7481;53.750;10.570;2022-12-07T13:53:13;3.30;99.90
14779;DHT22;7481;53.750;10.570;2022-12-07T14:04:34;3.20;99.90
14779;DHT22;7481;53.750;10.570;2022-12-07T14:07:26;3.20;99.90
14779;DHT22;7481;53.750;10.570;2022-12-07T14:13:39;2.80;99.90
14779;DHT22;7481;53.750;10.570;2022-12-07T14:16:34;3.10;99.90
14779;DHT22;7481;53.750;10.570;2022-12-07T14:22:36;3.00;99.90
14779;DHT22;7481;53.750;10.570;2022-12-07T14:25:26;2.90;99.90
14779;DHT22;7481;53.750;10.570;2022-12-07T14:28:32;2.90;99.90
14779;DHT22;7481;53.750;10.570;2022-12-07T14:31:24;2.90;99.90
14779;DHT22;7481;53.750;10.570;2022-12-07T14:34:16;2.90;99.90
14779;DHT22;7481;53.750;10.570;2022-12-07T14:37:06;2.90;99.90
14779;DHT22;7481;53.750;10.570;2022-12-07T14:39:54;2.80;99.90
14779;DHT22;7481;53.750;10.570;2022-12-07T14:42:42;2.80;99.90
14779;DHT22;7481;53.750;10.570;2022-12-07T14:45:29;2.70;99.90
14779;DHT22;7481;53.750;10.570;2022-12-07T14:48:16;2.70;99.90
14779;DHT22;7481;53.750;10.570;2022-12-07T14:51:23;2.70;99.90
14779;DHT22;7481;53.750;10.570;2022-12-07T14:54:31;2.60;99.90
14779;DHT22;7481;53.750;10.570;2022-12-07T14:57:18;2.60;99.90
14779;DHT22;7481;53.750;10.570;2022-12-07T15:00:06;2.50;99.90
14779;DHT22;7481;53.750;10.570;2022-12-07T15:02:54;2.40;99.90
14779;DHT22;7481;53.750;10.570;2022-12-07T15:05:41;2.30;99.90
14779;DHT22;7481;53.750;10.570;2022-12-07T15:08:28;2.20;99.90
14779;DHT22;7481;53.750;10.570;2022-12-07T15:14:04;2.10;99.90
14779;DHT22;7481;53.750;10.570;2022-12-07T15:17:00;2.00;99.90
14779;DHT22;7481;53.750;10.570;2022-12-07T15:20:03;1.70;99.90
14779;DHT22;7481;53.750;10.570;2022-12-07T15:25:43;1.80;99.90
14779;DHT22;7481;53.750;10.570;2022-12-07T15:28:30;1.90;99.90
14779;DHT22;7481;53.750;10.570;2022-12-07T15:31:18;1.60;99.90
14779;DHT22;7481;53.750;10.570;2022-12-07T15:34:26;1.70;99.90
14779;DHT22;7481;53.750;10.570;2022-12-07T15:40:07;1.70;99.90
14779;DHT22;7481;53.750;10.570;2022-12-07T15:42:54;1.70;99.90
14779;DHT22;7481;53.750;10.570;2022-12-07T15:45:41;1.60;99.90
14779;DHT22;7481;53.750;10.570;2022-12-07T15:48:28;1.60;99.90
14779;DHT22;7481;53.750;10.570;2022-12-07T15:51:16;1.60;99.90
14779;DHT22;7481;53.750;10.570;2022-12-07T15:54:20;1.60;99.90
14779;DHT22;7481;53.750;10.570;2022-12-07T15:57:07;1.70;99.90
14779;DHT22;7481;53.750;10.570;2022-12-07T15:59:55;2.20;99.90
14779;DHT22;7481;53.750;10.570;2022-12-07T16:02:42;2.40;99.90
14779;DHT22;7481;53.750;10.570;2022-12-07T16:05:29;2.50;99.90
14779;DHT22;7481;53.750;10.570;2022-12-07T16:08:17;2.70;99.90
14779;DHT22;7481;53.750;10.570;2022-12-07T16:11:07;2.50;99.90
14779;DHT22;7481;53.750;10.570;2022-12-07T16:13:54;2.20;99.90
14779;DHT22;7481;53.750;10.570;2022-12-07T16:16:41;2.00;99.90
14779;DHT22;7481;53.750;10.570;2022-12-07T16:19:28;1.90;99.90
14779;DHT22;7481;53.750;10.570;2022-12-07T16:22:15;1.80;99.90
14779;DHT22;7481;53.750;10.570;2022-12-07T16:25:03;1.80;99.90
14779;DHT22;7481;53.750;10.570;2022-12-07T16:27:52;1.80;99.90
14779;DHT22;7481;53.750;10.570;2022-12-07T16:30:39;1.70;99.90
14779;DHT22;7481;53.750;10.570;2022-12-07T16:33:26;1.70;99.90
14779;DHT22;7481;53.750;10.570;2022-12-07T16:36:14;1.70;99.90
14779;DHT22;7481;53.750;10.570;2022-12-07T16:39:22;1.70;99.90
14779;DHT22;7481;53.750;10.570;2022-12-07T16:42:09;1.80;99.90
14779;DHT22;7481;53.750;10.570;2022-12-07T16:44:56;1.70;99.90
14779;DHT22;7481;53.750;10.570;2022-12-07T16:47:43;1.70;99.90
14779;DHT22;7481;53.750;10.570;2022-12-07T16:50:30;1.70;99.90
14779;DHT22;7481;53.750;10.570;2022-12-07T16:53:19;1.70;99.90
14779;DHT22;7481;53.750;10.570;2022-12-07T16:56:14;1.60;99.90
14779;DHT22;7481;53.750;10.570;2022-12-07T16:59:01;1.60;99.90
14779;DHT22;7481;53.750;10.570;2022-12-07T17:01:48;1.60;99.90
14779;DHT22;7481;53.750;10.570;2022-12-07T17:04:35;1.60;99.90
14779;DHT22;7481;53.750;10.570;2022-12-07T17:07:24;1.60;99.90
14779;DHT22;7481;53.750;10.570;2022-12-07T17:10:11;1.60;99.90
14779;DHT22;7481;53.750;10.570;2022-12-07T17:12:58;1.70;99.90
14779;DHT22;7481;53.750;10.570;2022-12-07T17:15:55;1.60;99.90
14779;DHT22;7481;53.750;10.570;2022-12-07T17:18:42;1.60;99.90
14779;DHT22;7481;53.750;10.570;2022-12-07T17:21:29;1.50;99.90
14779;DHT22;7481;53.750;10.570;2022-12-07T17:24:16;1.20;99.90
14779;DHT22;7481;53.750;10.570;2022-12-07T17:27:03;2.30;99.90
14779;DHT22;7481;53.750;10.570;2022-12-07T17:29:50;1.70;99.90
14779;DHT22;7481;53.750;10.570;2022-12-07T17:32:37;1.70;99.90
14779;DHT22;7481;53.750;10.570;2022-12-07T17:35:24;1.70;99.90
14779;DHT22;7481;53.750;10.570;2022-12-07T17:38:11;1.90;99.90
14779;DHT22;7481;53.750;10.570;2022-12-07T17:40:58;1.80;99.90
14779;DHT22;7481;53.750;10.570;2022-12-07T17:43:45;1.70;99.90
14779;DHT22;7481;53.750;10.570;2022-12-07T17:46:32;1.80;99.90
14779;DHT22;7481;53.750;10.570;2022-12-07T17:49:19;1.80;99.90
14779;DHT22;7481;53.750;10.570;2022-12-07T17:52:06;1.80;99.90
14779;DHT22;7481;53.750;10.570;2022-12-07T17:55:12;1.80;99.90
14779;DHT22;7481;53.750;10.570;2022-12-07T17:57:59;1.80;99.90
14779;DHT22;7481;53.750;10.570;2022-12-07T18:00:46;1.80;99.90
14779;DHT22;7481;53.750;10.570;2022-12-07T18:03:33;1.80;99.90
14779;DHT22;7481;53.750;10.570;2022-12-07T18:06:20;1.80;99.90
14779;DHT22;7481;53.750;10.570;2022-12-07T18:09:08;1.70;99.90
14779;DHT22;7481;53.750;10.570;2022-12-07T18:11:55;1.70;99.90
14779;DHT22;7481;53.750;10.570;2022-12-07T18:14:42;1.70;99.90
14779;DHT22;7481;53.750;10.570;2022-12-07T18:17:29;1.70;99.90
14779;DHT22;7481;53.750;10.570;2022-12-07T18:20:16;1.70;99.90
14779;DHT22;7481;53.750;10.570;2022-12-07T18:23:03;1.70;99.90
14779;DHT22;7481;53.750;10.570;2022-12-07T18:25:50;1.70;99.90
14779;DHT22;7481;53.750;10.570;2022-12-07T18:28:37;1.80;99.90
14779;DHT22;7481;53.750;10.570;2022-12-07T18:31:24;1.70;99.90
14779;DHT22;7481;53.750;10.570;2022-12-07T18:34:13;1.70;99.90
14779;DHT22;7481;53.750;10.570;2022-12-07T18:37:00;1.70;99.90
14779;DHT22;7481;53.750;10.570;2022-12-07T18:39:47;1.70;99.90
14779;DHT22;7481;53.750;10.570;2022-12-07T18:42:35;1.80;99.90
14779;DHT22;7481;53.750;10.570;2022-12-07T18:45:22;1.70;99.90
14779;DHT22;7481;53.750;10.570;2022-12-07T18:48:10;1.80;99.90
14779;DHT22;7481;53.750;10.570;2022-12-07T18:51:03;1.80;99.90
14779;DHT22;7481;53.750;10.570;2022-12-07T18:53:50;1.80;99.90
14779;DHT22;7481;53.750;10.570;2022-12-07T18:56:38;1.80;99.90
14779;DHT22;7481;53.750;10.570;2022-12-07T18:59:25;1.70;99.90
14779;DHT22;7481;53.750;10.570;2022-12-07T19:02:31;1.70;99.90
14779;DHT22;7481;53.750;10.570;2022-12-07T19:05:19;1.60;99.90
14779;DHT22;7481;53.750;10.570;2022-12-07T19:08:06;1.50;99.90
14779;DHT22;7481;53.750;10.570;2022-12-07T19:10:54;1.50;99.90
14779;DHT22;7481;53.750;10.570;2022-12-07T19:14:06;1.40;99.90
14779;DHT22;7481;53.750;10.570;2022-12-07T19:16:57;1.50;99.90
14779;DHT22;7481;53.750;10.570;2022-12-07T19:19:45;1.50;99.90
14779;DHT22;7481;53.750;10.570;2022-12-07T19:22:33;1.50;99.90
14779;DHT22;7481;53.750;10.570;2022-12-07T19:25:20;1.30;99.90
14779;DHT22;7481;53.750;10.570;2022-12-07T19:28:06;1.30;99.90
14779;DHT22;7481;53.750;10.570;2022-12-07T19:30:53;1.30;99.90
14779;DHT22;7481;53.750;10.570;2022-12-07T19:33:40;1.40;99.90
14779;DHT22;7481;53.750;10.570;2022-12-07T19:36:28;1.30;99.90
14779;DHT22;7481;53.750;10.570;2022-12-07T19:39:15;1.30;99.90
14779;DHT22;7481;53.750;10.570;2022-12-07T19:42:02;1.40;99.90
14779;DHT22;7481;53.750;10.570;2022-12-07T19:44:49;1.40;99.90
14779;DHT22;7481;53.750;10.570;2022-12-07T19:47:36;1.40;99.90
14779;DHT22;7481;53.750;10.570;2022-12-07T19:50:23;1.40;99.90
14779;DHT22;7481;53.750;10.570;2022-12-07T19:53:10;1.50;99.90
14779;DHT22;7481;53.750;10.570;2022-12-07T19:55:57;1.50;99.90
14779;DHT22;7481;53.750;10.570;2022-12-07T19:58:44;1.50;99.90
14779;DHT22;7481;53.750;10.570;2022-12-07T20:01:32;1.40;99.90
14779;DHT22;7481;53.750;10.570;2022-12-07T20:04:21;2.30;99.90
14779;DHT22;7481;53.750;10.570;2022-12-07T20:07:09;1.40;99.90
14779;DHT22;7481;53.750;10.570;2022-12-07T20:09:57;1.40;99.90
14779;DHT22;7481;53.750;10.570;2022-12-07T20:12:44;1.40;99.90
14779;DHT22;7481;53.750;10.570;2022-12-07T20:15:51;1.30;99.90
14779;DHT22;7481;53.750;10.570;2022-12-07T20:18:47;1.20;99.90
14779;DHT22;7481;53.750;10.570;2022-12-07T20:21:44;1.20;99.90
14779;DHT22;7481;53.750;10.570;2022-12-07T20:24:31;1.20;99.90
14779;DHT22;7481;53.750;10.570;2022-12-07T20:27:20;1.20;99.90
14779;DHT22;7481;53.750;10.570;2022-12-07T20:30:08;1.30;99.90
14779;DHT22;7481;53.750;10.570;2022-12-07T20:32:55;1.30;99.90
14779;DHT22;7481;53.750;10.570;2022-12-07T20:35:42;1.30;99.90
14779;DHT22;7481;53.750;10.570;2022-12-07T20:38:30;1.30;99.90
14779;DHT22;7481;53.750;10.570;2022-12-07T20:41:18;1.10;99.90
14779;DHT22;7481;53.750;10.570;2022-12-07T20:44:25;1.00;99.90
14779;DHT22;7481;53.750;10.570;2022-12-07T20:47:12;0.90;99.90
14779;DHT22;7481;53.750;10.570;2022-12-07T20:50:00;0.80;99.90
14779;DHT22;7481;53.750;10.570;2022-12-07T20:52:48;0.80;99.90
14779;DHT22;7481;53.750;10.570;2022-12-07T20:55:35;0.80;99.90
14779;DHT22;7481;53.750;10.570;2022-12-07T20:58:22;0.90;99.90
14779;DHT22;7481;53.750;10.570;2022-12-07T21:01:14;0.90;99.90
14779;DHT22;7481;53.750;10.570;2022-12-07T21:04:02;0.90;99.90
14779;DHT22;7481;53.750;10.570;2022-12-07T21:06:49;0.90;99.90
14779;DHT22;7481;53.750;10.570;2022-12-07T21:09:36;1.00;99.90
14779;DHT22;7481;53.750;10.570;2022-12-07T21:12:23;1.00;99.90
14779;DHT22;7481;53.750;10.570;2022-12-07T21:15:10;1.00;99.90
14779;DHT22;7481;53.750;10.570;2022-12-07T21:17:58;1.00;99.90
14779;DHT22;7481;53.750;10.570;2022-12-07T21:20:53;1.00;99.90
14779;DHT22;7481;53.750;10.570;2022-12-07T21:23:39;1.00;99.90
14779;DHT22;7481;53.750;10.570;2022-12-07T21:26:27;1.00;99.90
14779;DHT22;7481;53.750;10.570;2022-12-07T21:29:14;1.00;99.90
14779;DHT22;7481;53.750;10.570;2022-12-07T21:32:01;1.00;99.90
14779;DHT22;7481;53.750;10.570;2022-12-07T21:34:49;1.00;99.90
14779;DHT22;7481;53.750;10.570;2022-12-07T21:37:36;1.00;99.90
14779;DHT22;7481;53.750;10.570;2022-12-07T21:40:23;1.00;99.90
14779;DHT22;7481;53.750;10.570;2022-12-07T21:43:10;1.00;99.90
14779;DHT22;7481;53.750;10.570;2022-12-07T21:45:57;1.00;99.90
14779;DHT22;7481;53.750;10.570;2022-12-07T21:48:52;1.00;99.90
14779;DHT22;7481;53.750;10.570;2022-12-07T21:51:41;1.00;99.90
14779;DHT22;7481;53.750;10.570;2022-12-07T21:54:28;1.00;99.90
14779;DHT22;7481;53.750;10.570;2022-12-07T21:57:15;1.10;99.90
14779;DHT22;7481;53.750;10.570;2022-12-07T22:00:02;1.10;99.90
14779;DHT22;7481;53.750;10.570;2022-12-07T22:02:50;1.10;99.90
14779;DHT22;7481;53.750;10.570;2022-12-07T22:05:38;1.10;99.90
14779;DHT22;7481;53.750;10.570;2022-12-07T22:08:26;1.10;99.90
14779;DHT22;7481;53.750;10.570;2022-12-07T22:11:14;1.10;99.90
14779;DHT22;7481;53.750;10.570;2022-12-07T22:14:03;1.10;99.90
14779;DHT22;7481;53.750;10.570;2022-12-07T22:17:09;1.10;99.90
14779;DHT22;7481;53.750;10.570;2022-12-07T22:19:56;1.10;99.90
14779;DHT22;7481;53.750;10.570;2022-12-07T22:22:44;1.10;99.90
14779;DHT22;7481;53.750;10.570;2022-12-07T22:25:31;1.10;99.90
14779;DHT22;7481;53.750;10.570;2022-12-07T22:28:17;1.00;99.90
14779;DHT22;7481;53.750;10.570;2022-12-07T22:31:06;1.10;99.90
14779;DHT22;7481;53.750;10.570;2022-12-07T22:33:53;1.10;99.90
14779;DHT22;7481;53.750;10.570;2022-12-07T22:36:41;1.10;99.90
14779;DHT22;7481;53.750;10.570;2022-12-07T22:39:28;1.10;99.90
14779;DHT22;7481;53.750;10.570;2022-12-07T22:42:15;1.10;99.90
14779;DHT22;7481;53.750;10.570;2022-12-07T22:45:02;1.10;99.90
14779;DHT22;7481;53.750;10.570;2022-12-07T22:47:49;1.10;99.90
14779;DHT22;7481;53.750;10.570;2022-12-07T22:50:37;1.10;99.90
14779;DHT22;7481;53.750;10.570;2022-12-07T22:53:24;1.10;99.90
14779;DHT22;7481;53.750;10.570;2022-12-07T22:56:11;1.20;99.90
14779;DHT22;7481;53.750;10.570;2022-12-07T22:58:58;1.20;99.90
14779;DHT22;7481;53.750;10.570;2022-12-07T23:01:46;1.20;99.90
14779;DHT22;7481;53.750;10.570;2022-12-07T23:04:33;1.20;99.90
14779;DHT22;7481;53.750;10.570;2022-12-07T23:07:20;1.10;99.90
14779;DHT22;7481;53.750;10.570;2022-12-07T23:10:07;1.10;99.90
14779;DHT22;7481;53.750;10.570;2022-12-07T23:12:54;1.10;99.90
14779;DHT22;7481;53.750;10.570;2022-12-07T23:16:08;1.10;99.90
14779;DHT22;7481;53.750;10.570;2022-12-07T23:18:55;1.10;99.90
14779;DHT22;7481;53.750;10.570;2022-12-07T23:21:43;1.20;99.90
14779;DHT22;7481;53.750;10.570;2022-12-07T23:24:30;1.20;99.90
14779;DHT22;7481;53.750;10.570;2022-12-07T23:27:17;1.20;99.90
14779;DHT22;7481;53.750;10.570;2022-12-07T23:30:04;1.20;99.90
14779;DHT22;7481;53.750;10.570;2022-12-07T23:32:51;1.20;99.90
14779;DHT22;7481;53.750;10.570;2022-12-07T23:35:38;1.20;99.90
14779;DHT22;7481;53.750;10.570;2022-12-07T23:38:25;1.30;99.90
14779;DHT22;7481;53.750;10.570;2022-12-07T23:41:14;1.30;99.90
14779;DHT22;7481;53.750;10.570;2022-12-07T23:44:02;1.30;99.90
14779;DHT22;7481;53.750;10.570;2022-12-07T23:46:49;1.30;99.90
14779;DHT22;7481;53.750;10.570;2022-12-07T23:49:36;1.30;99.90
14779;DHT22;7481;53.750;10.570;2022-12-07T23:52:23;1.30;99.90
14779;DHT22;7481;53.750;10.570;2022-12-07T23:55:10;1.20;99.90
14779;DHT22;7481;53.750;10.570;2022-12-07T23:57:57;1.20;99.90
